createdAt,value
2022-09-11T00:02:11.085Z,16.90
2022-09-11T00:04:37.857Z,16.90
2022-09-11T00:07:04.647Z,16.90
2022-09-11T00:09:31.356Z,16.90
2022-09-11T00:11:58.863Z,16.90
2022-09-11T00:14:28.880Z,16.90
2022-09-11T00:16:55.681Z,16.90
2022-09-11T00:19:22.691Z,16.80
2022-09-11T00:21:50.692Z,16.80
2022-09-11T00:24:17.836Z,16.80
2022-09-11T00:26:47.536Z,16.80
2022-09-11T00:29:14.879Z,16.70
2022-09-11T00:31:41.780Z,16.70
2022-09-11T00:34:11.063Z,16.60
2022-09-11T00:36:41.314Z,16.60
2022-09-11T00:39:08.375Z,16.60
2022-09-11T00:41:38.442Z,16.60
2022-09-11T00:44:07.381Z,16.50
2022-09-11T00:46:41.689Z,16.50
2022-09-11T00:49:30.838Z,16.40
2022-09-11T00:52:15.071Z,16.40
2022-09-11T00:54:52.021Z,16.40
2022-09-11T00:57:24.036Z,16.40
2022-09-11T00:59:54.640Z,16.40
2022-09-11T01:02:27.268Z,16.50
2022-09-11T01:04:55.282Z,16.50
2022-09-11T01:07:24.216Z,16.50
2022-09-11T01:09:51.743Z,16.50
2022-09-11T01:12:36.534Z,16.50
2022-09-11T01:15:25.450Z,16.60
2022-09-11T01:18:13.214Z,16.60
2022-09-11T01:21:04.510Z,16.70
2022-09-11T01:23:55.087Z,16.70
2022-09-11T01:26:37.740Z,16.70
2022-09-11T01:29:27.576Z,16.70
2022-09-11T01:32:15.946Z,16.80
2022-09-11T01:35:04.533Z,16.70
2022-09-11T01:37:53.123Z,16.80
2022-09-11T01:40:28.286Z,16.80
2022-09-11T01:43:03.358Z,16.80
2022-09-11T01:45:31.234Z,16.80
2022-09-11T01:48:00.107Z,16.80
2022-09-11T01:50:30.594Z,16.80
2022-09-11T01:53:05.072Z,16.80
2022-09-11T01:55:43.693Z,16.80
2022-09-11T01:58:31.589Z,16.80
2022-09-11T02:01:21.409Z,16.80
2022-09-11T02:04:07.505Z,16.80
2022-09-11T02:06:46.469Z,16.80
2022-09-11T02:09:16.704Z,16.80
2022-09-11T02:11:48.586Z,16.70
2022-09-11T02:14:16.310Z,16.70
2022-09-11T02:16:50.781Z,16.70
2022-09-11T02:19:20.041Z,16.70
2022-09-11T02:21:48.262Z,16.70
2022-09-11T02:24:16.093Z,16.70
2022-09-11T02:26:47.165Z,16.80
2022-09-11T02:29:15.169Z,16.80
2022-09-11T02:31:43.751Z,16.80
2022-09-11T02:34:13.152Z,16.80
2022-09-11T02:37:04.237Z,16.80
2022-09-11T02:39:48.166Z,16.80
2022-09-11T02:42:39.856Z,16.80
2022-09-11T02:45:24.965Z,16.90
2022-09-11T02:47:52.447Z,16.80
2022-09-11T02:50:40.566Z,16.70
2022-09-11T02:53:29.506Z,16.70
2022-09-11T02:56:06.321Z,16.70
2022-09-11T02:58:46.782Z,16.70
2022-09-11T03:01:13.544Z,16.70
2022-09-11T03:03:46.221Z,16.70
2022-09-11T03:06:19.378Z,16.70
2022-09-11T03:08:46.388Z,16.70
2022-09-11T03:11:15.274Z,16.70
2022-09-11T03:13:42.147Z,16.80
2022-09-11T03:16:08.919Z,16.70
2022-09-11T03:18:35.988Z,16.70
2022-09-11T03:21:03.707Z,16.70
2022-09-11T03:23:31.073Z,16.70
2022-09-11T03:25:58.648Z,16.80
2022-09-11T03:28:25.465Z,16.80
2022-09-11T03:30:54.966Z,16.80
2022-09-11T03:33:22.331Z,16.80
2022-09-11T03:35:49.014Z,16.80
2022-09-11T03:38:15.966Z,16.80
2022-09-11T03:40:44.238Z,16.80
2022-09-11T03:43:12.487Z,16.80
2022-09-11T03:45:39.539Z,16.70
2022-09-11T03:48:06.755Z,16.70
2022-09-11T03:50:33.998Z,16.70
2022-09-11T03:53:00.896Z,16.70
2022-09-11T03:55:27.718Z,16.60
2022-09-11T03:57:54.485Z,16.60
2022-09-11T04:00:21.130Z,16.70
2022-09-11T04:02:47.879Z,16.70
2022-09-11T04:05:14.611Z,16.70
2022-09-11T04:07:41.527Z,16.70
2022-09-11T04:10:08.607Z,16.70
2022-09-11T04:12:35.578Z,16.70
2022-09-11T04:15:02.261Z,16.60
2022-09-11T04:17:31.858Z,16.60
2022-09-11T04:19:58.516Z,16.60
2022-09-11T04:22:26.236Z,16.70
2022-09-11T04:24:53.049Z,16.70
2022-09-11T04:27:20.636Z,16.70
2022-09-11T04:29:47.350Z,16.60
2022-09-11T04:32:14.207Z,16.60
2022-09-11T04:34:41.174Z,16.50
2022-09-11T04:37:07.887Z,16.50
2022-09-11T04:39:35.722Z,16.40
2022-09-11T04:42:03.234Z,16.40
2022-09-11T04:44:30.055Z,16.30
2022-09-11T04:46:56.938Z,16.20
2022-09-11T04:49:23.641Z,16.20
2022-09-11T04:51:50.546Z,16.20
2022-09-11T04:54:21.103Z,16.20
2022-09-11T04:56:48.852Z,16.40
2022-09-11T04:59:22.070Z,16.30
2022-09-11T05:01:49.306Z,16.40
2022-09-11T05:04:21.716Z,16.30
2022-09-11T05:06:51.052Z,16.40
2022-09-11T05:09:18.662Z,16.40
2022-09-11T05:11:45.506Z,16.40
2022-09-11T05:14:12.729Z,16.40
2022-09-11T05:16:39.658Z,16.40
2022-09-11T05:19:06.835Z,16.40
2022-09-11T05:21:34.546Z,16.40
2022-09-11T05:24:02.338Z,16.40
2022-09-11T05:26:31.718Z,16.30
2022-09-11T05:29:02.179Z,16.30
2022-09-11T05:31:29.670Z,16.30
2022-09-11T05:33:57.065Z,16.20
2022-09-11T05:36:24.533Z,16.30
2022-09-11T05:38:52.114Z,16.20
2022-09-11T05:41:19.212Z,16.20
2022-09-11T05:43:46.195Z,16.20
2022-09-11T05:46:15.191Z,16.20
2022-09-11T05:48:43.071Z,16.30
2022-09-11T05:51:19.223Z,16.30
2022-09-11T05:53:46.267Z,16.40
2022-09-11T05:56:18.486Z,16.40
2022-09-11T05:58:46.687Z,16.40
2022-09-11T06:01:15.727Z,16.40
2022-09-11T06:03:43.113Z,16.40
2022-09-11T06:06:12.559Z,16.30
2022-09-11T06:08:42.727Z,16.20
2022-09-11T06:11:10.684Z,16.20
2022-09-11T06:13:42.499Z,16.10
2022-09-11T06:16:13.401Z,16.10
2022-09-11T06:18:42.987Z,16.20
2022-09-11T06:21:14.445Z,16.20
2022-09-11T06:23:41.305Z,16.30
2022-09-11T06:26:14.801Z,16.30
2022-09-11T06:28:42.044Z,16.30
2022-09-11T06:31:12.211Z,16.30
2022-09-11T06:33:40.668Z,16.40
2022-09-11T06:36:12.793Z,16.40
2022-09-11T06:38:39.544Z,16.40
2022-09-11T06:41:10.263Z,16.30
2022-09-11T06:43:37.034Z,16.30
2022-09-11T06:46:24.627Z,16.40
2022-09-11T06:48:51.889Z,16.40
2022-09-11T06:51:20.558Z,16.40
2022-09-11T06:53:47.814Z,16.40
2022-09-11T06:56:18.504Z,16.40
2022-09-11T06:58:46.463Z,16.40
2022-09-11T07:01:15.842Z,16.40
2022-09-11T07:03:45.132Z,16.40
2022-09-11T07:06:13.695Z,16.50
2022-09-11T07:08:40.711Z,16.50
2022-09-11T07:11:08.575Z,16.50
2022-09-11T07:13:37.535Z,16.50
2022-09-11T07:16:09.132Z,16.50
2022-09-11T07:18:37.435Z,16.50
2022-09-11T07:21:11.841Z,16.50
2022-09-11T07:23:39.491Z,16.50
2022-09-11T07:26:12.521Z,16.60
2022-09-11T07:28:40.240Z,16.70
2022-09-11T07:31:13.813Z,16.80
2022-09-11T07:33:48.817Z,16.80
2022-09-11T07:36:25.116Z,16.70
2022-09-11T07:38:52.716Z,16.70
2022-09-11T07:41:21.756Z,16.70
2022-09-11T07:43:53.225Z,16.70
2022-09-11T07:46:20.364Z,16.60
2022-09-11T07:48:47.699Z,16.60
2022-09-11T07:51:16.907Z,16.60
2022-09-11T07:53:46.202Z,16.50
2022-09-11T07:56:16.104Z,16.60
2022-09-11T07:58:43.521Z,16.70
2022-09-11T08:01:13.801Z,16.70
2022-09-11T08:03:40.666Z,16.80
2022-09-11T08:06:10.885Z,16.80
2022-09-11T08:08:38.350Z,16.70
2022-09-11T08:11:16.286Z,16.80
2022-09-11T08:13:44.013Z,16.80
2022-09-11T08:16:10.853Z,16.70
2022-09-11T08:18:37.582Z,16.90
2022-09-11T08:21:12.542Z,17.00
2022-09-11T08:23:41.547Z,17.10
2022-09-11T08:26:14.029Z,17.10
2022-09-11T08:28:45.363Z,17.10
2022-09-11T08:31:13.230Z,17.10
2022-09-11T08:33:40.455Z,17.20
2022-09-11T08:36:09.909Z,17.20
2022-09-11T08:38:37.861Z,17.20
2022-09-11T08:41:19.334Z,17.30
2022-09-11T08:43:56.646Z,17.20
2022-09-11T08:46:31.018Z,17.30
2022-09-11T08:49:16.306Z,17.30
2022-09-11T08:51:44.822Z,17.20
2022-09-11T08:54:27.621Z,17.20
2022-09-11T08:57:07.171Z,17.20
2022-09-11T09:00:00.731Z,17.10
2022-09-11T09:02:56.204Z,17.20
2022-09-11T09:05:45.998Z,17.20
2022-09-11T09:08:44.792Z,17.30
2022-09-11T09:11:33.765Z,17.30
2022-09-11T09:14:01.829Z,17.20
2022-09-11T09:16:53.485Z,17.20
2022-09-11T09:19:38.897Z,17.20
2022-09-11T09:22:19.619Z,17.30
2022-09-11T09:24:50.215Z,17.30
2022-09-11T09:27:30.330Z,17.30
2022-09-11T09:30:01.615Z,17.40
2022-09-11T09:32:43.886Z,17.50
2022-09-11T09:35:20.112Z,17.60
2022-09-11T09:37:46.949Z,17.50
2022-09-11T09:40:17.374Z,17.70
2022-09-11T09:42:49.463Z,17.80
2022-09-11T09:45:23.990Z,17.90
2022-09-11T09:47:50.934Z,17.90
2022-09-11T09:50:24.263Z,17.90
2022-09-11T09:52:51.434Z,17.90
2022-09-11T09:55:20.558Z,17.90
2022-09-11T09:57:47.224Z,18.00
2022-09-11T10:00:19.715Z,17.90
2022-09-11T10:02:53.955Z,17.90
2022-09-11T10:05:29.472Z,17.90
2022-09-11T10:08:06.746Z,18.00
2022-09-11T10:10:39.829Z,18.00
2022-09-11T10:13:20.893Z,18.00
2022-09-11T10:15:53.363Z,18.10
2022-09-11T10:18:30.858Z,18.20
2022-09-11T10:21:12.727Z,18.40
2022-09-11T10:23:59.068Z,18.60
2022-09-11T10:26:34.659Z,18.90
2022-09-11T10:29:12.117Z,19.20
2022-09-11T10:31:41.108Z,19.30
2022-09-11T10:34:15.861Z,19.40
2022-09-11T10:36:52.299Z,19.50
2022-09-11T10:39:21.404Z,19.70
2022-09-11T10:41:54.570Z,19.80
2022-09-11T10:44:22.470Z,19.80
2022-09-11T10:47:22.280Z,20.00
2022-09-11T10:49:49.199Z,20.10
2022-09-11T10:52:15.984Z,20.10
2022-09-11T10:54:54.074Z,20.10
2022-09-11T10:57:27.050Z,20.10
2022-09-11T11:00:02.969Z,20.10
2022-09-11T11:02:31.968Z,20.30
2022-09-11T11:05:04.881Z,20.40
2022-09-11T11:08:22.515Z,20.30
2022-09-11T11:11:03.827Z,20.20
2022-09-11T11:13:55.627Z,20.30
2022-09-11T11:16:42.751Z,20.20
2022-09-11T11:19:29.037Z,20.10
2022-09-11T11:22:20.222Z,20.20
2022-09-11T11:25:00.689Z,20.20
2022-09-11T11:27:54.573Z,20.50
2022-09-11T11:30:28.110Z,20.80
2022-09-11T11:33:17.107Z,21.00
2022-09-11T11:35:49.602Z,21.30
2022-09-11T11:38:24.275Z,21.10
2022-09-11T11:41:07.265Z,21.10
2022-09-11T11:43:36.817Z,21.30
2022-09-11T11:46:35.482Z,21.20
2022-09-11T11:49:23.435Z,21.30
2022-09-11T11:51:52.594Z,21.50
2022-09-11T11:54:32.906Z,21.60
2022-09-11T11:57:11.257Z,21.60
2022-09-11T11:59:47.504Z,21.60
2022-09-11T12:02:23.648Z,21.70
2022-09-11T12:05:10.142Z,21.70
2022-09-11T12:07:38.609Z,21.90
2022-09-11T12:10:07.922Z,22.10
2022-09-11T12:12:43.844Z,21.90
2022-09-11T12:15:20.615Z,21.90
2022-09-11T12:17:57.276Z,22.40
2022-09-11T12:20:41.120Z,22.70
2022-09-11T12:23:32.397Z,23.00
2022-09-11T12:26:23.729Z,23.30
2022-09-11T12:29:11.767Z,23.20
2022-09-11T12:32:04.133Z,23.30
2022-09-11T12:34:39.974Z,23.50
2022-09-11T12:37:14.809Z,23.80
2022-09-11T12:39:53.645Z,24.00
2022-09-11T12:42:23.404Z,24.10
2022-09-11T12:44:50.038Z,24.20
2022-09-11T12:47:29.491Z,24.10
2022-09-11T12:50:21.372Z,23.50
2022-09-11T12:52:54.821Z,23.50
2022-09-11T12:55:41.078Z,23.70
2022-09-11T12:58:25.396Z,23.20
2022-09-11T13:01:04.607Z,22.70
2022-09-11T13:03:31.903Z,23.00
2022-09-11T13:06:07.142Z,23.20
2022-09-11T13:08:39.175Z,23.20
2022-09-11T13:11:34.967Z,23.10
2022-09-11T13:14:03.414Z,23.20
2022-09-11T13:16:34.578Z,22.80
2022-09-11T13:19:14.238Z,22.70
2022-09-11T13:21:42.033Z,22.40
2022-09-11T13:24:31.797Z,22.10
2022-09-11T13:27:15.615Z,22.20
2022-09-11T13:29:43.579Z,22.10
2022-09-11T13:32:14.862Z,22.10
2022-09-11T13:34:48.754Z,21.90
2022-09-11T13:37:45.512Z,21.90
2022-09-11T13:40:27.050Z,22.10
2022-09-11T13:42:53.990Z,22.90
2022-09-11T13:45:22.679Z,23.30
2022-09-11T13:47:49.438Z,23.80
2022-09-11T13:50:18.023Z,24.60
2022-09-11T13:52:45.941Z,24.60
2022-09-11T13:55:20.225Z,25.20
2022-09-11T13:57:59.476Z,25.60
2022-09-11T14:00:45.654Z,26.30
2022-09-11T14:03:29.358Z,26.90
2022-09-11T14:06:04.210Z,26.40
2022-09-11T14:08:44.769Z,25.60
2022-09-11T14:11:21.290Z,25.50
2022-09-11T14:14:19.229Z,25.10
2022-09-11T14:16:54.558Z,24.50
2022-09-11T14:19:30.985Z,23.90
2022-09-11T14:21:58.441Z,23.50
2022-09-11T14:25:02.978Z,23.50
2022-09-11T14:27:35.217Z,23.40
2022-09-11T14:30:02.042Z,23.40
2022-09-11T14:32:37.906Z,23.20
2022-09-11T14:35:07.314Z,23.00
2022-09-11T14:37:40.191Z,22.90
2022-09-11T14:40:18.735Z,22.70
2022-09-11T14:42:46.128Z,22.50
2022-09-11T14:45:25.826Z,22.40
2022-09-11T14:47:53.481Z,22.50
2022-09-11T14:50:21.326Z,22.50
2022-09-11T14:52:48.023Z,22.50
2022-09-11T14:55:16.706Z,22.60
2022-09-11T14:57:46.022Z,22.50
2022-09-11T15:00:20.021Z,22.60
2022-09-11T15:02:47.707Z,22.60
2022-09-11T15:05:16.867Z,22.70
2022-09-11T15:07:46.522Z,22.90
2022-09-11T15:10:14.378Z,23.00
2022-09-11T15:12:41.248Z,23.10
2022-09-11T15:15:08.681Z,23.00
2022-09-11T15:17:36.357Z,23.00
2022-09-11T15:20:09.426Z,23.00
2022-09-11T15:22:38.399Z,23.10
2022-09-11T15:25:05.853Z,23.10
2022-09-11T15:27:32.938Z,23.10
2022-09-11T15:30:00.511Z,23.10
2022-09-11T15:32:27.496Z,22.80
2022-09-11T15:34:54.881Z,22.80
2022-09-11T15:37:21.764Z,22.70
2022-09-11T15:39:50.514Z,22.60
2022-09-11T15:42:17.794Z,22.50
2022-09-11T15:44:46.042Z,22.50
2022-09-11T15:47:13.664Z,22.30
2022-09-11T15:49:42.727Z,22.30
2022-09-11T15:52:09.701Z,22.20
2022-09-11T15:54:36.907Z,22.20
2022-09-11T15:57:03.674Z,22.20
2022-09-11T15:59:30.412Z,22.20
2022-09-11T16:01:57.314Z,22.00
2022-09-11T16:04:27.977Z,22.00
2022-09-11T16:06:55.176Z,21.90
2022-09-11T16:09:24.998Z,21.80
2022-09-11T16:11:52.987Z,21.80
2022-09-11T16:14:25.441Z,21.80
2022-09-11T16:16:52.530Z,21.80
2022-09-11T16:19:21.837Z,21.80
2022-09-11T16:21:49.953Z,21.70
2022-09-11T16:24:16.986Z,21.70
2022-09-11T16:26:44.595Z,21.70
2022-09-11T16:29:14.662Z,21.70
2022-09-11T16:31:42.610Z,21.60
2022-09-11T16:34:09.989Z,21.60
2022-09-11T16:36:41.883Z,21.50
2022-09-11T16:39:14.993Z,21.50
2022-09-11T16:41:42.278Z,21.40
2022-09-11T16:44:11.849Z,21.40
2022-09-11T16:46:39.256Z,21.40
2022-09-11T16:49:06.410Z,21.40
2022-09-11T16:51:34.132Z,21.30
2022-09-11T16:54:01.348Z,21.30
2022-09-11T16:56:28.157Z,21.20
2022-09-11T16:58:55.450Z,21.20
2022-09-11T17:01:24.875Z,21.20
2022-09-11T17:03:52.859Z,21.20
2022-09-11T17:06:20.443Z,21.20
2022-09-11T17:08:50.466Z,21.10
2022-09-11T17:11:19.822Z,21.00
2022-09-11T17:13:46.888Z,21.00
2022-09-11T17:16:16.889Z,21.00
2022-09-11T17:18:53.423Z,20.90
2022-09-11T17:21:22.988Z,20.90
2022-09-11T17:23:51.539Z,20.80
2022-09-11T17:26:18.551Z,20.80
2022-09-11T17:28:47.205Z,20.80
2022-09-11T17:31:15.553Z,20.70
2022-09-11T17:33:43.487Z,20.70
2022-09-11T17:36:12.184Z,20.70
2022-09-11T17:38:39.795Z,20.60
2022-09-11T17:41:08.369Z,20.60
2022-09-11T17:43:36.573Z,20.50
2022-09-11T17:46:15.198Z,20.40
2022-09-11T17:48:42.966Z,20.40
2022-09-11T17:51:16.284Z,20.30
2022-09-11T17:53:46.180Z,20.30
2022-09-11T17:56:16.555Z,20.20
2022-09-11T17:58:44.786Z,20.10
2022-09-11T18:01:16.676Z,20.10
2022-09-11T18:03:44.299Z,20.00
2022-09-11T18:06:28.348Z,20.00
2022-09-11T18:08:57.971Z,19.90
2022-09-11T18:11:24.965Z,19.90
2022-09-11T18:13:51.843Z,19.80
2022-09-11T18:16:19.116Z,19.70
2022-09-11T18:18:45.922Z,19.70
2022-09-11T18:21:13.231Z,19.60
2022-09-11T18:23:42.544Z,19.60
2022-09-11T18:26:22.199Z,19.60
2022-09-11T18:28:50.401Z,19.50
2022-09-11T18:31:17.327Z,19.50
2022-09-11T18:33:44.349Z,19.40
2022-09-11T18:36:13.434Z,19.40
2022-09-11T18:38:40.502Z,19.30
2022-09-11T18:41:07.432Z,19.20
2022-09-11T18:43:34.183Z,19.20
2022-09-11T18:46:04.200Z,19.10
2022-09-11T18:48:33.337Z,19.00
2022-09-11T18:51:06.806Z,19.00
2022-09-11T18:53:35.135Z,19.00
2022-09-11T18:56:04.198Z,18.90
2022-09-11T18:58:32.663Z,18.90
2022-09-11T19:01:00.755Z,18.80
2022-09-11T19:03:32.502Z,18.70
2022-09-11T19:06:10.211Z,18.70
2022-09-11T19:08:38.659Z,18.70
2022-09-11T19:11:17.604Z,18.60
2022-09-11T19:13:46.692Z,18.60
2022-09-11T19:16:15.017Z,18.60
2022-09-11T19:18:42.379Z,18.60
2022-09-11T19:21:12.606Z,18.50
2022-09-11T19:23:42.042Z,18.50
2022-09-11T19:26:22.403Z,18.40
2022-09-11T19:28:50.609Z,18.40
2022-09-11T19:31:25.068Z,18.40
2022-09-11T19:33:54.607Z,18.30
2022-09-11T19:36:24.544Z,18.30
2022-09-11T19:38:53.096Z,18.30
2022-09-11T19:41:23.291Z,18.20
2022-09-11T19:43:50.872Z,18.20
2022-09-11T19:46:24.182Z,18.20
2022-09-11T19:49:03.013Z,18.20
2022-09-11T19:51:32.796Z,18.20
2022-09-11T19:54:02.786Z,18.10
2022-09-11T19:56:32.048Z,18.10
2022-09-11T19:59:00.304Z,18.10
2022-09-11T20:01:31.971Z,18.10
2022-09-11T20:04:00.490Z,18.00
2022-09-11T20:06:30.832Z,18.10
2022-09-11T20:09:13.858Z,18.00
2022-09-11T20:11:45.817Z,18.00
2022-09-11T20:14:12.540Z,18.00
2022-09-11T20:16:39.304Z,17.90
2022-09-11T20:19:06.539Z,17.90
2022-09-11T20:21:35.511Z,17.90
2022-09-11T20:24:05.191Z,17.80
2022-09-11T20:26:32.702Z,17.80
2022-09-11T20:29:12.298Z,17.80
2022-09-11T20:31:48.913Z,17.80
2022-09-11T20:34:19.509Z,17.70
2022-09-11T20:36:46.810Z,17.70
2022-09-11T20:39:15.134Z,17.70
2022-09-11T20:41:42.178Z,17.70
2022-09-11T20:44:09.571Z,17.70
2022-09-11T20:46:36.678Z,17.70
2022-09-11T20:49:04.629Z,17.80
2022-09-11T20:51:32.905Z,17.70
2022-09-11T20:54:00.541Z,17.70
2022-09-11T20:56:28.162Z,17.80
2022-09-11T20:58:55.026Z,17.80
2022-09-11T21:01:24.064Z,17.80
2022-09-11T21:03:56.582Z,17.80
2022-09-11T21:06:28.279Z,17.70
2022-09-11T21:08:59.968Z,17.70
2022-09-11T21:11:28.458Z,17.70
2022-09-11T21:13:55.156Z,17.60
2022-09-11T21:16:22.431Z,17.60
2022-09-11T21:18:51.587Z,17.60
2022-09-11T21:21:19.084Z,17.60
2022-09-11T21:23:46.016Z,17.60
2022-09-11T21:26:15.405Z,17.60
2022-09-11T21:28:42.535Z,17.60
2022-09-11T21:31:09.727Z,17.60
2022-09-11T21:33:37.917Z,17.60
2022-09-11T21:36:06.012Z,17.60
2022-09-11T21:38:32.928Z,17.60
2022-09-11T21:41:01.563Z,17.60
2022-09-11T21:43:28.666Z,17.60
2022-09-11T21:45:55.623Z,17.50
2022-09-11T21:48:22.733Z,17.50
2022-09-11T21:50:49.852Z,17.50
2022-09-11T21:53:16.560Z,17.50
2022-09-11T21:55:45.293Z,17.50
2022-09-11T21:58:16.407Z,17.40
2022-09-11T22:00:43.720Z,17.40
2022-09-11T22:03:14.492Z,17.40
2022-09-11T22:05:43.502Z,17.40
2022-09-11T22:08:15.581Z,17.30
2022-09-11T22:10:50.505Z,17.30
2022-09-11T22:13:19.387Z,17.30
2022-09-11T22:15:48.477Z,17.30
2022-09-11T22:18:17.269Z,17.30
2022-09-11T22:20:44.694Z,17.20
2022-09-11T22:23:17.325Z,17.20
2022-09-11T22:25:45.381Z,17.20
2022-09-11T22:28:12.575Z,17.10
2022-09-11T22:30:43.186Z,17.20
2022-09-11T22:33:10.605Z,17.10
2022-09-11T22:35:37.588Z,17.10
2022-09-11T22:38:04.452Z,17.10
2022-09-11T22:40:31.307Z,17.00
2022-09-11T22:42:58.003Z,17.00
2022-09-11T22:45:24.716Z,17.00
2022-09-11T22:47:51.547Z,16.90
2022-09-11T22:50:18.538Z,16.90
2022-09-11T22:52:45.295Z,16.90
2022-09-11T22:55:12.059Z,16.90
2022-09-11T22:57:39.066Z,16.80
2022-09-11T23:00:09.020Z,16.80
2022-09-11T23:02:36.262Z,16.80
2022-09-11T23:05:22.534Z,16.80
2022-09-11T23:07:50.054Z,16.80
2022-09-11T23:10:17.255Z,16.70
2022-09-11T23:12:44.404Z,16.70
2022-09-11T23:15:11.497Z,16.70
2022-09-11T23:17:38.218Z,16.70
2022-09-11T23:20:05.470Z,16.70
2022-09-11T23:22:32.188Z,16.70
2022-09-11T23:24:58.866Z,16.70
2022-09-11T23:27:25.699Z,16.70
2022-09-11T23:29:52.609Z,16.60
2022-09-11T23:32:19.340Z,16.60
2022-09-11T23:34:46.067Z,16.60
2022-09-11T23:37:15.362Z,16.60
2022-09-11T23:39:43.103Z,16.50
2022-09-11T23:42:09.905Z,16.50
2022-09-11T23:44:36.630Z,16.50
2022-09-11T23:47:03.463Z,16.50
2022-09-11T23:49:34.253Z,16.50
2022-09-11T23:52:03.810Z,16.40
2022-09-11T23:54:30.479Z,16.40
2022-09-11T23:56:57.422Z,16.40
2022-09-11T23:59:24.181Z,16.40
